createdAt,value
2022-09-10T00:04:55.699Z,3.67
2022-09-10T00:09:57.378Z,6.80
2022-09-10T00:14:59.064Z,5.50
2022-09-10T00:20:00.750Z,5.18
2022-09-10T00:25:07.610Z,4.05
2022-09-10T00:30:10.379Z,5.65
2022-09-10T00:35:11.988Z,4.53
2022-09-10T00:40:15.492Z,2.08
2022-09-10T00:45:23.500Z,3.33
2022-09-10T00:50:29.708Z,4.30
2022-09-10T00:55:34.122Z,5.85
2022-09-10T01:00:36.620Z,5.57
2022-09-10T01:05:42.237Z,3.30
2022-09-10T01:11:11.185Z,2.85
2022-09-10T01:16:41.479Z,2.65
2022-09-10T01:21:55.057Z,3.67
2022-09-10T01:27:17.892Z,4.75
2022-09-10T01:32:39.268Z,4.00
2022-09-10T01:37:43.600Z,3.55
2022-09-10T01:42:46.131Z,1.88
2022-09-10T01:48:22.919Z,2.83
2022-09-10T01:53:49.102Z,3.67
2022-09-10T01:58:54.361Z,3.60
2022-09-10T02:04:01.274Z,2.90
2022-09-10T02:09:04.064Z,3.80
2022-09-10T02:14:05.785Z,3.95
2022-09-10T02:19:08.113Z,3.47
2022-09-10T02:24:12.429Z,4.97
2022-09-10T02:29:15.826Z,3.05
2022-09-10T02:34:17.481Z,2.33
2022-09-10T02:39:19.120Z,5.85
2022-09-10T02:44:20.817Z,3.13
2022-09-10T02:49:22.607Z,3.65
2022-09-10T02:54:24.250Z,4.35
2022-09-10T02:59:25.978Z,4.35
2022-09-10T03:04:27.692Z,4.60
2022-09-10T03:09:29.407Z,2.75
2022-09-10T03:14:31.069Z,4.55
2022-09-10T03:19:32.760Z,2.83
2022-09-10T03:24:34.529Z,6.40
2022-09-10T03:29:36.317Z,4.50
2022-09-10T03:34:39.850Z,4.43
2022-09-10T03:39:41.789Z,5.65
2022-09-10T03:44:43.491Z,2.70
2022-09-10T03:49:45.197Z,4.97
2022-09-10T03:54:46.841Z,4.93
2022-09-10T03:59:49.792Z,3.47
2022-09-10T04:04:51.421Z,5.93
2022-09-10T04:09:53.140Z,3.33
2022-09-10T04:14:54.970Z,5.05
2022-09-10T04:19:56.635Z,5.00
2022-09-10T04:24:59.587Z,5.65
2022-09-10T04:30:01.261Z,6.22
2022-09-10T04:35:03.369Z,6.45
2022-09-10T04:40:05.450Z,4.60
2022-09-10T04:45:07.761Z,3.47
2022-09-10T04:50:09.821Z,4.70
2022-09-10T04:55:12.034Z,5.70
2022-09-10T05:00:15.096Z,3.70
2022-09-10T05:05:16.729Z,4.28
2022-09-10T05:10:18.392Z,3.80
2022-09-10T05:15:20.101Z,4.55
2022-09-10T05:20:22.027Z,7.55
2022-09-10T05:25:24.466Z,3.20
2022-09-10T05:30:26.148Z,6.82
2022-09-10T05:35:29.030Z,3.65
2022-09-10T05:40:30.706Z,4.95
2022-09-10T05:45:33.425Z,4.15
2022-09-10T05:50:35.155Z,5.93
2022-09-10T05:55:37.029Z,5.30
2022-09-10T06:00:38.981Z,4.20
2022-09-10T06:05:40.598Z,7.10
2022-09-10T06:10:43.040Z,3.78
2022-09-10T06:15:44.948Z,5.22
2022-09-10T06:20:50.100Z,4.75
2022-09-10T06:26:04.284Z,6.63
2022-09-10T06:31:07.067Z,4.60
2022-09-10T06:36:09.953Z,3.30
2022-09-10T06:41:13.552Z,2.17
2022-09-10T06:47:03.141Z,1.60
2022-09-10T06:51:42.463Z,3.83
2022-09-10T06:56:46.840Z,4.43
2022-09-10T07:01:49.365Z,2.67
2022-09-10T07:06:51.436Z,1.90
2022-09-10T07:11:53.381Z,1.95
2022-09-10T07:16:55.556Z,3.05
2022-09-10T07:21:57.210Z,1.10
2022-09-10T07:26:58.906Z,1.58
2022-09-10T07:32:01.688Z,3.47
2022-09-10T07:37:03.381Z,3.00
2022-09-10T07:42:06.094Z,4.20
2022-09-10T07:47:07.760Z,1.60
2022-09-10T07:52:09.720Z,1.23
2022-09-10T07:57:11.455Z,0.73
2022-09-10T08:02:15.324Z,0.30
2022-09-10T08:07:17.224Z,2.42
2022-09-10T08:12:18.858Z,1.52
2022-09-10T08:17:20.513Z,0.85
2022-09-10T08:22:22.324Z,2.50
2022-09-10T08:27:23.973Z,0.35
2022-09-10T08:32:25.689Z,2.83
2022-09-10T08:37:28.949Z,0.60
2022-09-10T08:42:46.369Z,2.15
2022-09-10T08:48:08.682Z,2.47
2022-09-10T08:53:32.565Z,1.05
2022-09-10T08:58:47.053Z,2.30
2022-09-10T09:03:49.678Z,2.72
2022-09-10T09:08:52.855Z,3.30
2022-09-10T09:14:03.563Z,3.95
2022-09-10T09:19:46.788Z,2.72
2022-09-10T09:24:58.784Z,4.00
2022-09-10T09:30:14.393Z,3.75
2022-09-10T09:35:48.956Z,4.65
2022-09-10T09:40:56.277Z,4.72
2022-09-10T09:45:58.936Z,4.82
2022-09-10T09:51:01.438Z,2.85
2022-09-10T09:56:31.876Z,2.22
2022-09-10T10:01:37.061Z,2.33
2022-09-10T10:07:00.935Z,3.05
2022-09-10T10:12:05.528Z,1.58
2022-09-10T10:17:30.204Z,1.90
2022-09-10T10:22:32.029Z,5.40
2022-09-10T10:27:37.524Z,1.67
2022-09-10T10:33:01.883Z,2.75
2022-09-10T10:38:13.621Z,3.08
2022-09-10T10:43:28.364Z,3.33
2022-09-10T10:48:50.332Z,3.58
2022-09-10T10:54:06.251Z,3.70
2022-09-10T10:59:44.672Z,1.70
2022-09-10T11:04:50.935Z,4.97
2022-09-10T11:10:03.836Z,4.05
2022-09-10T11:15:37.026Z,2.22
2022-09-10T11:21:04.357Z,2.88
2022-09-10T11:26:10.484Z,3.03
2022-09-10T11:31:18.334Z,2.00
2022-09-10T11:36:41.200Z,3.72
2022-09-10T11:41:46.999Z,4.28
2022-09-10T11:47:15.966Z,3.92
2022-09-10T11:52:20.300Z,2.88
2022-09-10T11:58:00.186Z,2.75
2022-09-10T12:03:43.419Z,2.42
2022-09-10T12:09:17.889Z,2.53
2022-09-10T12:14:22.211Z,4.65
2022-09-10T12:19:37.229Z,2.65
2022-09-10T12:24:39.823Z,3.20
2022-09-10T12:29:41.589Z,4.80
2022-09-10T12:34:43.211Z,4.50
2022-09-10T12:39:45.229Z,1.90
2022-09-10T12:44:47.365Z,3.95
2022-09-10T12:50:05.760Z,3.47
2022-09-10T12:55:53.764Z,2.30
2022-09-10T13:00:55.818Z,4.93
2022-09-10T13:06:04.245Z,3.55
2022-09-10T13:11:15.742Z,3.20
2022-09-10T13:16:20.338Z,5.82
2022-09-10T13:21:25.008Z,6.53
2022-09-10T13:26:33.673Z,3.92
2022-09-10T13:31:39.857Z,3.83
2022-09-10T13:37:05.845Z,4.75
2022-09-10T13:42:33.602Z,6.78
2022-09-10T13:48:04.914Z,9.02
2022-09-10T13:53:11.425Z,13.27
2022-09-10T13:58:18.770Z,8.35
2022-09-10T14:03:40.739Z,8.10
2022-09-10T14:08:57.212Z,8.45
2022-09-10T14:14:09.682Z,8.40
2022-09-10T14:19:23.175Z,6.32
2022-09-10T14:24:40.191Z,6.55
2022-09-10T14:29:43.109Z,7.90
2022-09-10T14:34:44.930Z,8.02
2022-09-10T14:39:47.547Z,8.77
2022-09-10T14:44:49.442Z,10.82
2022-09-10T14:49:52.625Z,8.93
2022-09-10T14:54:56.104Z,6.70
2022-09-10T14:59:57.861Z,8.40
2022-09-10T15:04:59.631Z,9.55
2022-09-10T15:10:01.625Z,8.45
2022-09-10T15:15:04.020Z,10.55
2022-09-10T15:20:06.249Z,8.77
2022-09-10T15:25:17.339Z,8.90
2022-09-10T15:30:19.016Z,10.98
2022-09-10T15:35:22.998Z,10.25
2022-09-10T15:40:24.845Z,8.63
2022-09-10T15:45:26.956Z,6.80
2022-09-10T15:50:28.746Z,7.78
2022-09-10T15:55:31.487Z,5.95
2022-09-10T16:00:37.318Z,5.43
2022-09-10T16:05:44.435Z,5.13
2022-09-10T16:10:46.205Z,5.22
2022-09-10T16:16:02.629Z,6.47
2022-09-10T16:21:18.389Z,5.03
2022-09-10T16:26:27.367Z,8.05
2022-09-10T16:31:34.666Z,4.97
2022-09-10T16:36:37.948Z,4.93
2022-09-10T16:41:40.852Z,7.43
2022-09-10T16:46:43.228Z,6.57
2022-09-10T16:51:46.588Z,7.10
2022-09-10T16:56:49.062Z,4.40
2022-09-10T17:01:52.479Z,6.97
2022-09-10T17:06:55.190Z,6.15
2022-09-10T17:11:56.916Z,5.95
2022-09-10T17:16:58.572Z,7.07
2022-09-10T17:22:00.482Z,7.95
2022-09-10T17:27:02.621Z,8.38
2022-09-10T17:32:04.343Z,7.10
2022-09-10T17:37:06.173Z,9.48
2022-09-10T17:42:08.269Z,8.55
2022-09-10T17:47:10.406Z,7.68
2022-09-10T17:52:12.271Z,8.10
2022-09-10T17:57:17.307Z,7.15
2022-09-10T18:02:19.298Z,6.40
2022-09-10T18:07:20.954Z,7.53
2022-09-10T18:12:24.164Z,9.52
2022-09-10T18:17:27.008Z,8.02
2022-09-10T18:22:28.671Z,6.10
2022-09-10T18:28:01.890Z,6.20
2022-09-10T18:32:54.450Z,7.27
2022-09-10T18:37:57.155Z,6.55
2022-09-10T18:42:58.806Z,6.75
2022-09-10T18:48:00.993Z,6.65
2022-09-10T18:53:02.689Z,5.43
2022-09-10T18:58:04.510Z,6.03
2022-09-10T19:03:08.018Z,4.30
2022-09-10T19:08:09.689Z,5.85
2022-09-10T19:13:12.228Z,6.57
2022-09-10T19:18:13.950Z,7.75
2022-09-10T19:23:19.675Z,7.60
2022-09-10T19:28:22.517Z,8.05
2022-09-10T19:33:24.144Z,8.10
2022-09-10T19:38:37.599Z,7.75
2022-09-10T19:43:40.765Z,6.30
2022-09-10T19:48:43.536Z,9.10
2022-09-10T19:53:45.460Z,8.70
2022-09-10T19:58:49.720Z,10.40
2022-09-10T20:03:53.516Z,11.05
2022-09-10T20:08:55.694Z,10.93
2022-09-10T20:13:59.537Z,10.65
2022-09-10T20:19:04.063Z,10.60
2022-09-10T20:29:13.794Z,15.15
2022-09-10T20:34:22.237Z,13.63
2022-09-10T20:39:27.561Z,12.45
2022-09-10T20:44:30.081Z,15.50
2022-09-10T20:49:31.760Z,13.27
2022-09-10T20:54:33.492Z,12.60
2022-09-10T20:59:35.200Z,15.85
2022-09-10T21:04:36.861Z,14.52
2022-09-10T21:09:38.682Z,13.70
2022-09-10T21:14:40.341Z,16.63
2022-09-10T21:19:42.946Z,14.10
2022-09-10T21:24:44.600Z,12.15
2022-09-10T21:29:47.041Z,16.17
2022-09-10T21:34:48.859Z,14.88
2022-09-10T21:39:50.699Z,11.93
2022-09-10T21:44:52.525Z,10.05
2022-09-10T21:49:54.261Z,15.27
2022-09-10T21:54:56.084Z,11.18
2022-09-10T21:59:58.491Z,10.73
2022-09-10T22:05:03.408Z,11.25
2022-09-10T22:10:06.911Z,11.60
2022-09-10T22:15:09.109Z,9.93
2022-09-10T22:20:11.012Z,13.20
2022-09-10T22:25:12.676Z,11.43
2022-09-10T22:30:14.355Z,10.02
2022-09-10T22:35:16.048Z,10.60
2022-09-10T22:40:17.616Z,12.55
2022-09-10T22:45:20.988Z,11.48
2022-09-10T22:51:18.092Z,10.27
2022-09-10T22:56:22.113Z,13.82
2022-09-10T23:01:29.756Z,11.50
2022-09-10T23:06:33.261Z,14.60
2022-09-10T23:11:37.129Z,12.77
2022-09-10T23:16:41.579Z,12.33
2022-09-10T23:26:46.538Z,11.88
2022-09-10T23:31:48.284Z,11.10
2022-09-10T23:36:51.201Z,15.13
2022-09-10T23:41:55.216Z,14.27
2022-09-10T23:46:57.423Z,12.02
2022-09-10T23:51:59.229Z,12.57
2022-09-10T23:57:02.748Z,13.45
